South Boston, Virginia
Current Conditions -  °F | °C
As of 11:55 PM on Friday 19 Dec 2014 (Local Time) from KW78 Reporting Station
Clear Clear  
Wind Chill: 30°   Ceiling: Unl
Heat Index: 30°   Visibility: 10mi
Dew Point: 27°   Wind: 3mph
Humidity: 87%   Direction: 40°NE
Pressure: 30.23"   Gusts: NA
Location:  36.7°N, 78.9°W
Report Text: KW78 200455Z AUTO 04003KT 10SM CLR M01/M03 A3023 RMK AO1 T10111030 400971031
Loading
Personal Weather Stations






























Interactive Weather Map New forecast layout! Learn more

10-Day Weather Forecast

Advertisements
Track Severe Weather on mobile